createdAt,value
2018-07-24T00:00:17.985Z,74.69
2018-07-24T00:02:46.182Z,74.81
2018-07-24T00:05:14.341Z,74.95
2018-07-24T00:07:42.559Z,74.82
2018-07-24T00:10:10.784Z,75.37
2018-07-24T00:12:39.058Z,75.11
2018-07-24T00:15:07.260Z,74.17
2018-07-24T00:17:35.814Z,75.05
2018-07-24T00:20:05.966Z,75.67
2018-07-24T00:22:34.399Z,75.39
2018-07-24T00:25:02.971Z,75.41
2018-07-24T00:27:31.066Z,75.90
2018-07-24T00:29:59.274Z,76.14
2018-07-24T00:32:28.148Z,76.22
2018-07-24T00:34:56.377Z,76.50
2018-07-24T00:37:24.744Z,76.05
2018-07-24T00:39:53.553Z,76.28
2018-07-24T00:42:21.724Z,76.55
2018-07-24T00:44:50.013Z,76.41
2018-07-24T00:47:18.528Z,76.54
2018-07-24T00:49:46.794Z,75.98
2018-07-24T00:52:15.036Z,75.82
2018-07-24T00:54:43.217Z,75.76
2018-07-24T00:57:11.720Z,76.20
2018-07-24T00:59:39.918Z,76.63
2018-07-24T01:02:11.064Z,76.73
2018-07-24T01:04:39.579Z,76.41
2018-07-24T01:07:07.752Z,76.25
2018-07-24T01:09:36.669Z,76.06
2018-07-24T01:12:05.268Z,76.78
2018-07-24T01:14:33.797Z,76.97
2018-07-24T01:17:02.090Z,77.75
2018-07-24T01:19:30.524Z,77.50
2018-07-24T01:21:59.439Z,77.65
2018-07-24T01:24:27.844Z,78.05
2018-07-24T01:26:56.720Z,78.32
2018-07-24T01:29:24.917Z,78.60
2018-07-24T01:31:53.135Z,78.25
2018-07-24T01:34:22.833Z,78.25
2018-07-24T01:36:51.264Z,78.85
2018-07-24T01:39:19.745Z,79.32
2018-07-24T01:41:47.918Z,79.17
2018-07-24T01:44:16.397Z,79.19
2018-07-24T01:46:44.595Z,78.93
2018-07-24T01:49:13.105Z,79.53
2018-07-24T01:51:41.569Z,79.44
2018-07-24T01:54:09.879Z,79.99
2018-07-24T01:56:38.084Z,79.50
2018-07-24T01:59:06.281Z,79.86
2018-07-24T02:01:34.746Z,79.90
2018-07-24T02:04:02.940Z,80.38
2018-07-24T02:06:31.188Z,80.36
2018-07-24T02:08:59.728Z,79.91
2018-07-24T02:11:27.900Z,80.00
2018-07-24T02:13:56.134Z,80.51
2018-07-24T02:16:24.433Z,80.55
2018-07-24T02:18:53.456Z,80.45
2018-07-24T02:21:21.700Z,79.69
2018-07-24T02:23:49.881Z,80.34
2018-07-24T02:26:18.425Z,80.72
2018-07-24T02:28:46.634Z,80.92
2018-07-24T02:31:14.881Z,81.09
2018-07-24T02:33:43.034Z,80.78
2018-07-24T02:36:11.244Z,80.83
2018-07-24T02:38:39.701Z,81.01
2018-07-24T02:41:08.220Z,81.01
2018-07-24T02:43:36.392Z,81.33
2018-07-24T02:46:04.858Z,82.12
2018-07-24T02:48:33.423Z,82.69
2018-07-24T02:51:04.005Z,82.79
2018-07-24T02:53:34.068Z,82.50
2018-07-24T02:56:02.253Z,83.03
2018-07-24T02:58:31.140Z,83.74
2018-07-24T03:00:59.651Z,83.52
2018-07-24T03:03:27.865Z,83.55
2018-07-24T03:05:56.060Z,83.32
2018-07-24T03:08:24.545Z,83.35
2018-07-24T03:10:52.794Z,83.04
2018-07-24T03:13:20.966Z,83.61
2018-07-24T03:15:49.116Z,83.55
2018-07-24T03:18:17.945Z,83.80
2018-07-24T03:20:46.474Z,83.49
2018-07-24T03:23:14.727Z,83.13
2018-07-24T03:25:43.219Z,84.02
2018-07-24T03:28:12.497Z,83.98
2018-07-24T03:30:40.712Z,83.71
2018-07-24T03:33:08.969Z,84.05
2018-07-24T03:35:37.274Z,83.95
2018-07-24T03:38:05.503Z,83.75
2018-07-24T03:40:34.211Z,84.04
2018-07-24T03:43:02.543Z,84.40
2018-07-24T03:45:31.006Z,84.13
2018-07-24T03:47:59.905Z,84.14
2018-07-24T03:50:28.292Z,84.00
2018-07-24T03:52:56.485Z,84.46
2018-07-24T03:55:24.681Z,84.80
2018-07-24T03:57:52.930Z,84.50
2018-07-24T04:00:21.501Z,83.93
2018-07-24T04:02:50.145Z,83.83
2018-07-24T04:05:18.869Z,83.25
2018-07-24T04:07:51.254Z,82.88
2018-07-24T04:10:20.802Z,82.92
2018-07-24T04:12:49.881Z,83.05
2018-07-24T04:15:18.073Z,82.69
2018-07-24T04:17:46.639Z,82.22
2018-07-24T04:20:14.861Z,81.88
2018-07-24T04:22:43.071Z,82.21
2018-07-24T04:25:11.180Z,81.53
2018-07-24T04:27:39.398Z,80.93
2018-07-24T04:30:07.903Z,80.34
2018-07-24T04:32:36.400Z,81.13
2018-07-24T04:35:04.727Z,81.55
2018-07-24T04:37:32.953Z,81.48
2018-07-24T04:40:01.547Z,80.93
2018-07-24T04:42:29.829Z,79.42
2018-07-24T04:44:58.077Z,79.21
2018-07-24T04:47:26.443Z,78.24
2018-07-24T04:49:57.620Z,77.82
2018-07-24T04:52:26.104Z,77.23
2018-07-24T04:54:54.333Z,76.58
2018-07-24T04:57:22.691Z,75.72
2018-07-24T04:59:50.977Z,75.79
2018-07-24T05:02:19.182Z,75.25
2018-07-24T05:04:47.410Z,74.47
2018-07-24T05:07:15.898Z,73.98
2018-07-24T05:09:44.909Z,73.72
2018-07-24T05:12:13.599Z,73.72
2018-07-24T05:14:41.899Z,73.43
2018-07-24T05:17:11.398Z,73.43
2018-07-24T05:19:39.916Z,73.31
2018-07-24T05:22:08.158Z,73.42
2018-07-24T05:24:36.689Z,73.26
2018-07-24T05:27:05.773Z,72.53
2018-07-24T05:29:34.118Z,72.54
2018-07-24T05:32:02.673Z,72.15
2018-07-24T05:34:31.409Z,72.46
2018-07-24T05:36:59.887Z,73.06
2018-07-24T05:39:28.947Z,73.21
2018-07-24T05:41:57.843Z,72.49
2018-07-24T05:44:26.533Z,71.65
2018-07-24T05:46:54.733Z,71.71
2018-07-24T05:49:23.340Z,72.13
2018-07-24T05:51:51.993Z,71.81
2018-07-24T05:54:21.042Z,71.82
2018-07-24T05:56:49.268Z,70.84
2018-07-24T05:59:20.543Z,70.89
2018-07-24T06:01:48.792Z,70.01
2018-07-24T06:04:16.965Z,70.01
2018-07-24T06:06:45.173Z,69.34
2018-07-24T06:09:13.386Z,68.58
2018-07-24T06:11:41.613Z,68.87
2018-07-24T06:14:10.188Z,68.34
2018-07-24T06:16:38.417Z,68.15
2018-07-24T06:19:06.703Z,67.73
2018-07-24T06:21:35.145Z,67.57
2018-07-24T06:24:03.354Z,66.12
2018-07-24T06:26:31.796Z,66.70
2018-07-24T06:28:59.903Z,66.37
2018-07-24T06:31:34.780Z,66.18
2018-07-24T06:34:02.998Z,66.49
2018-07-24T06:36:32.421Z,65.77
2018-07-24T06:39:01.003Z,65.12
2018-07-24T06:41:29.624Z,65.07
2018-07-24T06:43:57.793Z,63.63
2018-07-24T06:46:26.029Z,64.79
2018-07-24T06:48:54.195Z,63.70
2018-07-24T06:51:22.730Z,63.39
2018-07-24T06:53:51.257Z,63.20
2018-07-24T06:56:19.737Z,62.16
2018-07-24T06:58:48.068Z,61.99
2018-07-24T07:01:16.279Z,61.99
2018-07-24T07:03:44.566Z,61.65
2018-07-24T07:06:13.105Z,61.20
2018-07-24T07:08:42.048Z,60.87
2018-07-24T07:11:10.607Z,60.18
2018-07-24T07:13:38.785Z,59.95
2018-07-24T07:16:07.304Z,60.17
2018-07-24T07:18:35.765Z,58.94
2018-07-24T07:21:03.951Z,58.93
2018-07-24T07:23:32.205Z,57.98
2018-07-24T07:26:00.850Z,56.78
2018-07-24T07:28:29.582Z,56.56
2018-07-24T07:30:57.786Z,56.99
2018-07-24T07:33:26.266Z,56.01
2018-07-24T07:35:54.462Z,55.58
2018-07-24T07:38:22.718Z,55.26
2018-07-24T07:40:50.957Z,54.51
2018-07-24T07:43:19.431Z,54.56
2018-07-24T07:45:47.556Z,55.16
2018-07-24T07:48:15.778Z,54.61
2018-07-24T07:50:44.082Z,54.90
2018-07-24T07:53:12.326Z,53.76
2018-07-24T07:55:41.068Z,52.83
2018-07-24T07:58:09.306Z,52.20
2018-07-24T08:00:37.514Z,51.99
2018-07-24T08:03:05.875Z,51.73
2018-07-24T08:05:34.092Z,51.52
2018-07-24T08:08:02.736Z,51.23
2018-07-24T08:10:30.987Z,50.28
2018-07-24T08:12:59.155Z,49.94
2018-07-24T08:15:27.360Z,49.30
2018-07-24T08:17:55.606Z,48.90
2018-07-24T08:20:24.364Z,48.95
2018-07-24T08:22:52.709Z,48.72
2018-07-24T08:25:21.375Z,48.96
2018-07-24T08:27:51.544Z,49.02
2018-07-24T08:30:19.978Z,48.87
2018-07-24T08:32:48.210Z,47.93
2018-07-24T08:35:17.390Z,46.16
2018-07-24T08:37:45.917Z,47.53
2018-07-24T08:40:14.417Z,46.81
2018-07-24T08:42:42.961Z,46.35
2018-07-24T08:45:11.197Z,44.92
2018-07-24T08:47:44.399Z,45.57
2018-07-24T08:50:12.638Z,44.10
2018-07-24T08:52:42.685Z,44.29
2018-07-24T08:55:11.416Z,43.08
2018-07-24T08:57:39.444Z,42.65
2018-07-24T09:00:07.962Z,41.78
2018-07-24T09:02:36.306Z,42.18
2018-07-24T09:05:04.941Z,41.28
2018-07-24T09:07:33.872Z,41.13
2018-07-24T09:10:02.753Z,40.99
2018-07-24T09:12:34.153Z,40.20
2018-07-24T09:15:02.676Z,40.93
2018-07-24T09:17:30.969Z,40.20
2018-07-24T09:19:59.247Z,40.13
2018-07-24T09:22:27.809Z,38.48
2018-07-24T09:24:56.380Z,38.58
2018-07-24T09:27:24.856Z,37.65
2018-07-24T09:29:53.154Z,37.58
2018-07-24T09:32:21.426Z,37.70
2018-07-24T09:34:50.205Z,37.64
2018-07-24T09:37:18.994Z,37.21
2018-07-24T09:39:47.592Z,37.26
2018-07-24T09:42:16.421Z,36.47
2018-07-24T09:44:45.041Z,36.12
2018-07-24T09:47:13.483Z,35.57
2018-07-24T09:49:41.829Z,35.78
2018-07-24T09:52:10.036Z,34.74
2018-07-24T09:54:38.285Z,34.48
2018-07-24T09:57:06.669Z,33.76
2018-07-24T09:59:35.137Z,35.05
2018-07-24T10:02:04.207Z,34.60
2018-07-24T10:04:32.618Z,35.33
2018-07-24T10:07:00.960Z,33.70
2018-07-24T10:09:29.054Z,33.91
2018-07-24T10:11:57.332Z,34.62
2018-07-24T10:14:25.824Z,33.69
2018-07-24T10:16:54.790Z,33.45
2018-07-24T10:19:23.154Z,33.64
2018-07-24T10:21:51.558Z,33.83
2018-07-24T10:24:19.773Z,33.75
2018-07-24T10:26:48.493Z,34.04
2018-07-24T10:29:17.197Z,32.85
2018-07-24T10:31:45.703Z,32.63
2018-07-24T10:34:14.380Z,32.75
2018-07-24T10:36:43.505Z,32.95
2018-07-24T10:39:12.408Z,32.08
2018-07-24T10:41:41.239Z,32.77
2018-07-24T10:44:10.130Z,31.84
2018-07-24T10:46:38.956Z,31.34
2018-07-24T10:49:08.186Z,30.69
2018-07-24T10:51:36.407Z,31.15
2018-07-24T10:54:04.605Z,31.23
2018-07-24T10:56:33.523Z,30.79
2018-07-24T10:59:01.805Z,30.33
2018-07-24T11:01:30.014Z,31.07
2018-07-24T11:03:58.200Z,30.23
2018-07-24T11:06:27.445Z,29.41
2018-07-24T11:08:56.408Z,29.72
2018-07-24T11:11:24.675Z,29.66
2018-07-24T11:13:53.321Z,29.79
2018-07-24T11:16:21.793Z,30.09
2018-07-24T11:18:50.424Z,29.12
2018-07-24T11:21:19.603Z,30.24
2018-07-24T11:23:48.290Z,31.06
2018-07-24T11:26:17.110Z,31.36
2018-07-24T11:28:45.612Z,30.03
2018-07-24T11:31:14.676Z,29.67
2018-07-24T11:33:42.942Z,29.45
2018-07-24T11:36:11.230Z,29.35
2018-07-24T11:38:39.825Z,29.92
2018-07-24T11:41:08.737Z,30.23
2018-07-24T11:43:37.497Z,28.65
2018-07-24T11:46:05.721Z,29.14
2018-07-24T11:48:35.693Z,28.94
2018-07-24T11:51:04.306Z,29.25
2018-07-24T11:53:32.742Z,28.46
2018-07-24T11:56:01.249Z,28.72
2018-07-24T11:58:29.633Z,28.61
2018-07-24T12:00:58.040Z,29.90
2018-07-24T12:03:26.348Z,28.60
2018-07-24T12:05:55.419Z,26.88
2018-07-24T12:08:24.693Z,27.85
2018-07-24T12:10:53.400Z,27.72
2018-07-24T12:13:22.317Z,27.46
2018-07-24T12:15:51.366Z,26.44
2018-07-24T12:18:19.928Z,27.09
2018-07-24T12:20:48.437Z,26.79
2018-07-24T12:23:16.621Z,27.06
2018-07-24T12:25:45.463Z,26.82
2018-07-24T12:28:14.117Z,26.28
2018-07-24T12:30:42.427Z,27.51
2018-07-24T12:33:11.384Z,26.56
2018-07-24T12:35:39.543Z,26.25
2018-07-24T12:38:07.766Z,24.16
2018-07-24T12:40:35.986Z,25.98
2018-07-24T12:43:04.297Z,25.52
2018-07-24T12:45:32.508Z,26.88
2018-07-24T12:48:01.013Z,25.20
2018-07-24T12:50:29.709Z,25.33
2018-07-24T12:52:58.469Z,24.87
2018-07-24T12:55:27.412Z,24.25
2018-07-24T12:57:56.113Z,23.67
2018-07-24T13:00:24.441Z,23.89
2018-07-24T13:02:52.700Z,23.58
2018-07-24T13:05:22.360Z,24.58
2018-07-24T13:07:51.430Z,25.07
2018-07-24T13:10:20.747Z,25.01
2018-07-24T13:12:48.965Z,24.68
2018-07-24T13:15:18.272Z,24.13
2018-07-24T13:17:46.962Z,23.42
2018-07-24T13:20:15.704Z,23.29
2018-07-24T13:22:44.307Z,23.07
2018-07-24T13:25:13.234Z,22.64
2018-07-24T13:27:42.237Z,21.99
2018-07-24T13:30:11.059Z,20.70
2018-07-24T13:32:39.993Z,18.71
2018-07-24T13:35:08.833Z,17.73
2018-07-24T13:37:37.388Z,17.01
2018-07-24T13:40:05.665Z,16.72
2018-07-24T13:42:33.893Z,16.21
2018-07-24T13:45:02.496Z,14.89
2018-07-24T13:47:30.963Z,14.59
2018-07-24T13:49:59.529Z,14.81
2018-07-24T13:52:27.796Z,15.45
2018-07-24T13:54:56.325Z,13.85
2018-07-24T13:57:24.520Z,13.20
2018-07-24T13:59:52.900Z,13.61
2018-07-24T14:02:21.236Z,14.96
2018-07-24T14:04:50.583Z,15.29
2018-07-24T14:07:19.104Z,17.29
2018-07-24T14:09:47.379Z,19.85
2018-07-24T14:12:16.176Z,21.80
2018-07-24T14:14:46.052Z,23.06
2018-07-24T14:17:14.571Z,23.48
2018-07-24T14:19:44.871Z,23.84
2018-07-24T14:22:13.157Z,24.46
2018-07-24T14:24:41.673Z,24.76
2018-07-24T14:27:10.017Z,22.69
2018-07-24T14:29:38.459Z,21.05
2018-07-24T14:32:07.227Z,19.37
2018-07-24T14:34:36.932Z,16.64
2018-07-24T14:37:05.501Z,15.67
2018-07-24T14:39:34.421Z,14.90
2018-07-24T14:42:03.354Z,13.99
2018-07-24T14:44:31.759Z,13.72
2018-07-24T14:47:02.082Z,13.42
2018-07-24T14:49:33.400Z,13.88
2018-07-24T14:52:02.449Z,16.57
2018-07-24T14:54:31.244Z,18.23
2018-07-24T14:56:59.390Z,18.42
2018-07-24T14:59:28.517Z,20.52
2018-07-24T15:01:57.075Z,20.48
2018-07-24T15:04:26.156Z,21.46
2018-07-24T15:06:55.485Z,21.65
2018-07-24T15:09:25.770Z,22.23
2018-07-24T15:11:54.527Z,22.72
2018-07-24T15:14:23.499Z,22.19
2018-07-24T15:16:52.133Z,22.80
2018-07-24T15:19:20.917Z,22.38
2018-07-24T15:21:49.396Z,21.90
2018-07-24T15:24:17.981Z,20.70
2018-07-24T15:26:47.271Z,20.29
2018-07-24T15:29:15.774Z,18.13
2018-07-24T15:31:44.185Z,16.64
2018-07-24T15:34:12.721Z,13.94
2018-07-24T15:36:41.255Z,13.33
2018-07-24T15:39:12.195Z,13.01
2018-07-24T15:41:41.304Z,12.66
2018-07-24T15:44:10.361Z,12.42
2018-07-24T15:46:38.910Z,13.50
2018-07-24T15:49:07.219Z,12.41
2018-07-24T15:51:36.283Z,12.92
2018-07-24T15:54:05.175Z,15.40
2018-07-24T15:56:33.527Z,14.83
2018-07-24T15:59:01.865Z,14.66
2018-07-24T16:01:30.392Z,13.74
2018-07-24T16:03:58.536Z,13.63
2018-07-24T16:06:27.069Z,14.00
2018-07-24T16:08:55.592Z,14.11
2018-07-24T16:11:23.927Z,13.76
2018-07-24T16:13:55.723Z,12.52
2018-07-24T16:16:24.473Z,12.46
2018-07-24T16:18:53.062Z,12.28
2018-07-24T16:21:21.924Z,11.86
2018-07-24T16:23:50.484Z,11.60
2018-07-24T16:26:18.728Z,12.63
2018-07-24T16:28:47.524Z,14.93
2018-07-24T16:31:15.973Z,14.48
2018-07-24T16:33:46.939Z,15.13
2018-07-24T16:36:15.349Z,17.30
2018-07-24T16:38:44.148Z,17.03
2018-07-24T16:41:12.530Z,16.38
2018-07-24T16:43:40.726Z,15.23
2018-07-24T16:46:09.843Z,13.91
2018-07-24T16:48:38.314Z,14.29
2018-07-24T16:51:07.501Z,14.19
2018-07-24T16:53:37.240Z,14.90
2018-07-24T16:56:06.132Z,14.07
2018-07-24T16:58:35.158Z,13.96
2018-07-24T17:01:03.446Z,13.32
2018-07-24T17:03:31.923Z,13.71
2018-07-24T17:06:00.824Z,16.02
2018-07-24T17:08:29.132Z,14.53
2018-07-24T17:10:57.958Z,14.28
2018-07-24T17:13:26.234Z,15.04
2018-07-24T17:15:54.453Z,15.25
2018-07-24T17:18:22.968Z,15.23
2018-07-24T17:20:51.281Z,16.29
2018-07-24T17:23:20.416Z,15.63
2018-07-24T17:25:49.043Z,14.44
2018-07-24T17:28:17.217Z,14.87
2018-07-24T17:30:46.062Z,14.76
2018-07-24T17:33:14.340Z,14.44
2018-07-24T17:35:43.007Z,14.93
2018-07-24T17:38:11.167Z,15.51
2018-07-24T17:40:39.662Z,15.30
2018-07-24T17:43:08.123Z,16.02
2018-07-24T17:45:36.426Z,16.58
2018-07-24T17:48:05.438Z,16.99
2018-07-24T17:50:34.186Z,16.52
2018-07-24T17:53:02.917Z,17.29
2018-07-24T17:55:32.101Z,18.25
2018-07-24T17:58:00.594Z,17.39
2018-07-24T18:00:28.989Z,18.07
2018-07-24T18:02:57.653Z,20.38
2018-07-24T18:05:26.438Z,24.14
2018-07-24T18:07:54.635Z,24.02
2018-07-24T18:10:23.641Z,26.58
2018-07-24T18:12:51.942Z,25.93
2018-07-24T18:15:20.488Z,26.90
2018-07-24T18:17:49.349Z,27.95
2018-07-24T18:20:17.517Z,27.90
2018-07-24T18:22:45.847Z,27.58
2018-07-24T18:25:14.256Z,28.13
2018-07-24T18:27:43.635Z,28.21
2018-07-24T18:30:12.405Z,29.60
2018-07-24T18:32:41.268Z,28.65
2018-07-24T18:35:09.476Z,32.04
2018-07-24T18:37:38.010Z,32.56
2018-07-24T18:40:06.734Z,31.34
2018-07-24T18:42:35.220Z,31.78
2018-07-24T18:45:04.931Z,32.44
2018-07-24T18:47:33.443Z,33.62
2018-07-24T18:50:02.661Z,33.92
2018-07-24T18:52:33.356Z,33.68
2018-07-24T18:55:01.592Z,33.96
2018-07-24T18:57:29.829Z,34.05
2018-07-24T18:59:58.061Z,34.57
2018-07-24T19:02:26.522Z,35.03
2018-07-24T19:04:54.906Z,35.93
2018-07-24T19:07:29.764Z,37.41
2018-07-24T19:09:58.084Z,37.49
2018-07-24T19:12:26.920Z,37.65
2018-07-24T19:20:56.673Z,37.70
2018-07-24T19:23:25.000Z,39.27
2018-07-24T19:25:54.640Z,40.04
2018-07-24T19:28:23.088Z,40.32
2018-07-24T19:30:51.922Z,40.75
2018-07-24T19:33:20.182Z,41.19
2018-07-24T19:35:48.769Z,41.24
2018-07-24T19:38:17.472Z,41.61
2018-07-24T19:40:45.692Z,41.97
2018-07-24T19:43:14.716Z,41.89
2018-07-24T19:45:42.975Z,42.92
2018-07-24T19:48:12.486Z,42.90
2018-07-24T19:50:40.970Z,42.33
2018-07-24T19:53:09.552Z,42.46
2018-07-24T19:55:39.012Z,42.53
2018-07-24T19:58:07.654Z,42.80
2018-07-24T20:00:38.107Z,43.56
2018-07-24T20:03:07.580Z,43.59
2018-07-24T20:05:35.943Z,43.60
2018-07-24T20:08:04.571Z,43.84
2018-07-24T20:10:32.932Z,43.77
2018-07-24T20:13:01.456Z,43.75
2018-07-24T20:15:30.834Z,44.33
2018-07-24T20:17:59.143Z,44.52
2018-07-24T20:20:27.673Z,45.25
2018-07-24T20:22:55.935Z,45.90
2018-07-24T20:25:24.348Z,44.96
2018-07-24T20:27:52.720Z,45.40
2018-07-24T20:30:21.555Z,45.67
2018-07-24T20:32:50.389Z,45.60
2018-07-24T20:35:22.045Z,46.95
2018-07-24T20:37:50.265Z,47.54
2018-07-24T20:40:18.434Z,47.75
2018-07-24T20:42:46.959Z,47.86
2018-07-24T20:45:15.444Z,47.33
2018-07-24T20:47:44.360Z,47.62
2018-07-24T20:50:13.305Z,48.74
2018-07-24T20:52:43.010Z,48.62
2018-07-24T20:55:11.714Z,49.78
2018-07-24T20:57:39.856Z,49.06
2018-07-24T21:00:08.072Z,49.90
2018-07-24T21:02:36.888Z,49.52
2018-07-24T21:05:06.048Z,49.66
2018-07-24T21:07:34.633Z,49.61
2018-07-24T21:10:05.204Z,50.15
2018-07-24T21:12:33.342Z,50.34
2018-07-24T21:15:01.872Z,49.63
2018-07-24T21:17:31.997Z,49.81
2018-07-24T21:20:02.154Z,49.89
2018-07-24T21:22:31.087Z,49.58
2018-07-24T21:25:01.552Z,49.84
2018-07-24T21:27:30.102Z,50.09
2018-07-24T21:29:58.875Z,50.21
2018-07-24T21:32:27.103Z,50.76
2018-07-24T21:34:55.201Z,50.37
2018-07-24T21:37:23.482Z,50.34
2018-07-24T21:39:53.789Z,51.26
2018-07-24T21:42:23.724Z,51.72
2018-07-24T21:44:54.804Z,52.26
2018-07-24T21:47:25.298Z,53.13
2018-07-24T21:49:53.525Z,53.31
2018-07-24T21:52:22.585Z,52.62
2018-07-24T21:54:50.968Z,52.41
2018-07-24T21:57:19.409Z,52.17
2018-07-24T21:59:47.903Z,52.55
2018-07-24T22:02:16.569Z,52.55
2018-07-24T22:04:45.109Z,54.02
2018-07-24T22:07:13.981Z,54.99
2018-07-24T22:09:42.165Z,55.50
2018-07-24T22:12:10.466Z,55.36
2018-07-24T22:14:39.105Z,55.92
2018-07-24T22:17:07.632Z,55.53
2018-07-24T22:19:36.111Z,55.79
2018-07-24T22:22:04.605Z,55.40
2018-07-24T22:24:33.842Z,55.17
2018-07-24T22:27:04.085Z,55.45
2018-07-24T22:29:34.766Z,55.50
2018-07-24T22:32:05.779Z,55.87
2018-07-24T22:34:37.324Z,56.26
2018-07-24T22:37:06.367Z,56.64
2018-07-24T22:39:34.771Z,57.17
2018-07-24T22:42:03.115Z,57.49
2018-07-24T22:44:31.624Z,56.55
2018-07-24T22:47:03.417Z,56.93
2018-07-24T22:49:34.250Z,57.01
2018-07-24T22:52:04.688Z,57.26
2018-07-24T22:54:33.172Z,57.39
2018-07-24T22:57:01.650Z,57.40
2018-07-24T22:59:30.224Z,58.14
2018-07-24T23:02:00.498Z,58.73
2018-07-24T23:04:28.760Z,58.65
2018-07-24T23:06:56.957Z,59.03
2018-07-24T23:09:27.074Z,59.77
2018-07-24T23:11:57.404Z,58.93
2018-07-24T23:14:25.799Z,58.67
2018-07-24T23:16:56.173Z,59.26
2018-07-24T23:19:25.912Z,60.27
2018-07-24T23:21:56.475Z,61.34
2018-07-24T23:24:24.708Z,61.60
2018-07-24T23:26:52.960Z,61.38
2018-07-24T23:29:21.620Z,62.12
2018-07-24T23:31:49.839Z,62.47
2018-07-24T23:34:18.426Z,62.99
2018-07-24T23:36:46.736Z,63.80
2018-07-24T23:39:15.859Z,63.87
2018-07-24T23:41:44.385Z,64.17
2018-07-24T23:44:12.666Z,64.04
2018-07-24T23:46:40.876Z,64.11
2018-07-24T23:49:09.938Z,63.89
2018-07-24T23:51:38.455Z,63.71
2018-07-24T23:54:08.571Z,64.00
2018-07-24T23:56:39.212Z,64.54
2018-07-24T23:59:07.852Z,64.51
